sensor_id;sensor_type;location;lat;lon;timestamp;P1;durP1;ratioP1;P2;durP2;ratioP2
8978;SDS011;4524;51.364;5.448;2023-01-31T00:01:51;16.50;;;4.07;;
8978;SDS011;4524;51.364;5.448;2023-01-31T00:04:19;18.23;;;4.93;;
8978;SDS011;4524;51.364;5.448;2023-01-31T00:06:47;14.77;;;4.70;;
8978;SDS011;4524;51.364;5.448;2023-01-31T00:09:17;15.10;;;5.43;;
8978;SDS011;4524;51.364;5.448;2023-01-31T00:11:45;17.67;;;4.80;;
8978;SDS011;4524;51.364;5.448;2023-01-31T00:14:15;20.30;;;5.07;;
8978;SDS011;4524;51.364;5.448;2023-01-31T00:16:45;17.43;;;5.07;;
8978;SDS011;4524;51.364;5.448;2023-01-31T00:19:15;17.47;;;5.10;;
8978;SDS011;4524;51.364;5.448;2023-01-31T00:21:43;18.17;;;4.63;;
8978;SDS011;4524;51.364;5.448;2023-01-31T00:24:11;18.13;;;5.50;;
8978;SDS011;4524;51.364;5.448;2023-01-31T00:26:40;14.60;;;4.80;;
8978;SDS011;4524;51.364;5.448;2023-01-31T00:29:08;15.53;;;4.93;;
8978;SDS011;4524;51.364;5.448;2023-01-31T00:31:36;18.83;;;5.03;;
8978;SDS011;4524;51.364;5.448;2023-01-31T00:34:05;20.53;;;5.63;;
8978;SDS011;4524;51.364;5.448;2023-01-31T00:36:35;14.70;;;5.63;;
8978;SDS011;4524;51.364;5.448;2023-01-31T00:39:07;12.67;;;5.00;;
8978;SDS011;4524;51.364;5.448;2023-01-31T00:41:36;18.47;;;5.43;;
8978;SDS011;4524;51.364;5.448;2023-01-31T00:44:05;15.53;;;5.30;;
8978;SDS011;4524;51.364;5.448;2023-01-31T00:46:33;22.10;;;5.13;;
8978;SDS011;4524;51.364;5.448;2023-01-31T00:49:02;19.83;;;5.53;;
8978;SDS011;4524;51.364;5.448;2023-01-31T00:51:31;13.33;;;5.20;;
8978;SDS011;4524;51.364;5.448;2023-01-31T00:54:01;18.20;;;5.83;;
8978;SDS011;4524;51.364;5.448;2023-01-31T00:56:29;21.23;;;5.20;;
8978;SDS011;4524;51.364;5.448;2023-01-31T00:58:58;16.80;;;5.60;;
8978;SDS011;4524;51.364;5.448;2023-01-31T01:01:26;14.80;;;5.27;;
8978;SDS011;4524;51.364;5.448;2023-01-31T01:03:55;20.33;;;5.33;;
8978;SDS011;4524;51.364;5.448;2023-01-31T01:06:24;12.07;;;4.80;;
8978;SDS011;4524;51.364;5.448;2023-01-31T01:08:53;17.73;;;5.63;;
8978;SDS011;4524;51.364;5.448;2023-01-31T01:11:25;18.17;;;5.37;;
8978;SDS011;4524;51.364;5.448;2023-01-31T01:13:55;18.13;;;5.77;;
8978;SDS011;4524;51.364;5.448;2023-01-31T01:16:43;19.97;;;5.60;;
8978;SDS011;4524;51.364;5.448;2023-01-31T01:19:12;20.50;;;5.93;;
8978;SDS011;4524;51.364;5.448;2023-01-31T01:21:42;22.27;;;5.97;;
8978;SDS011;4524;51.364;5.448;2023-01-31T01:24:11;15.80;;;5.67;;
8978;SDS011;4524;51.364;5.448;2023-01-31T01:26:43;16.17;;;5.20;;
8978;SDS011;4524;51.364;5.448;2023-01-31T01:29:12;14.47;;;5.17;;
8978;SDS011;4524;51.364;5.448;2023-01-31T01:31:40;19.13;;;5.83;;
8978;SDS011;4524;51.364;5.448;2023-01-31T01:34:10;17.13;;;5.00;;
8978;SDS011;4524;51.364;5.448;2023-01-31T01:36:39;15.43;;;5.70;;
8978;SDS011;4524;51.364;5.448;2023-01-31T01:39:08;16.93;;;5.57;;
8978;SDS011;4524;51.364;5.448;2023-01-31T01:41:40;20.23;;;5.77;;
8978;SDS011;4524;51.364;5.448;2023-01-31T01:47:10;16.03;;;6.60;;
8978;SDS011;4524;51.364;5.448;2023-01-31T01:49:41;23.63;;;7.07;;
8978;SDS011;4524;51.364;5.448;2023-01-31T01:52:09;16.87;;;6.33;;
8978;SDS011;4524;51.364;5.448;2023-01-31T01:54:41;15.83;;;6.20;;
8978;SDS011;4524;51.364;5.448;2023-01-31T01:57:14;18.70;;;6.50;;
8978;SDS011;4524;51.364;5.448;2023-01-31T01:59:51;18.67;;;7.17;;
8978;SDS011;4524;51.364;5.448;2023-01-31T02:02:24;21.17;;;5.97;;
8978;SDS011;4524;51.364;5.448;2023-01-31T02:04:53;25.70;;;7.13;;
8978;SDS011;4524;51.364;5.448;2023-01-31T02:07:22;19.50;;;6.80;;
8978;SDS011;4524;51.364;5.448;2023-01-31T02:09:52;22.40;;;7.40;;
8978;SDS011;4524;51.364;5.448;2023-01-31T02:12:28;16.53;;;6.67;;
8978;SDS011;4524;51.364;5.448;2023-01-31T02:14:58;20.97;;;6.37;;
8978;SDS011;4524;51.364;5.448;2023-01-31T02:17:27;20.90;;;7.50;;
8978;SDS011;4524;51.364;5.448;2023-01-31T02:20:01;23.67;;;8.10;;
8978;SDS011;4524;51.364;5.448;2023-01-31T02:22:41;20.53;;;6.87;;
8978;SDS011;4524;51.364;5.448;2023-01-31T02:25:24;22.03;;;7.53;;
8978;SDS011;4524;51.364;5.448;2023-01-31T02:28:38;27.03;;;7.93;;
8978;SDS011;4524;51.364;5.448;2023-01-31T02:35:05;23.37;;;8.63;;
8978;SDS011;4524;51.364;5.448;2023-01-31T02:37:42;23.93;;;8.40;;
8978;SDS011;4524;51.364;5.448;2023-01-31T02:40:18;25.00;;;7.67;;
8978;SDS011;4524;51.364;5.448;2023-01-31T02:42:53;22.30;;;8.13;;
8978;SDS011;4524;51.364;5.448;2023-01-31T02:45:28;24.77;;;7.97;;
8978;SDS011;4524;51.364;5.448;2023-01-31T02:48:06;21.33;;;7.83;;
8978;SDS011;4524;51.364;5.448;2023-01-31T02:50:48;21.53;;;8.07;;
8978;SDS011;4524;51.364;5.448;2023-01-31T02:53:28;18.90;;;7.77;;
8978;SDS011;4524;51.364;5.448;2023-01-31T02:56:01;20.67;;;7.90;;
8978;SDS011;4524;51.364;5.448;2023-01-31T02:58:45;24.07;;;8.50;;
8978;SDS011;4524;51.364;5.448;2023-01-31T03:01:20;26.23;;;8.87;;
8978;SDS011;4524;51.364;5.448;2023-01-31T03:03:51;23.80;;;8.77;;
8978;SDS011;4524;51.364;5.448;2023-01-31T03:09:40;21.47;;;9.10;;
8978;SDS011;4524;51.364;5.448;2023-01-31T03:12:16;19.27;;;8.13;;
8978;SDS011;4524;51.364;5.448;2023-01-31T03:15:01;17.60;;;7.80;;
8978;SDS011;4524;51.364;5.448;2023-01-31T03:17:48;20.43;;;8.40;;
8978;SDS011;4524;51.364;5.448;2023-01-31T03:20:27;26.57;;;9.27;;
8978;SDS011;4524;51.364;5.448;2023-01-31T03:23:05;23.23;;;8.13;;
8978;SDS011;4524;51.364;5.448;2023-01-31T03:25:37;25.70;;;8.47;;
8978;SDS011;4524;51.364;5.448;2023-01-31T03:28:09;23.20;;;8.63;;
8978;SDS011;4524;51.364;5.448;2023-01-31T03:30:45;22.53;;;8.20;;
8978;SDS011;4524;51.364;5.448;2023-01-31T03:33:20;17.43;;;8.30;;
8978;SDS011;4524;51.364;5.448;2023-01-31T03:35:56;20.50;;;8.77;;
8978;SDS011;4524;51.364;5.448;2023-01-31T03:38:31;21.60;;;9.20;;
8978;SDS011;4524;51.364;5.448;2023-01-31T03:41:05;22.20;;;8.30;;
8978;SDS011;4524;51.364;5.448;2023-01-31T03:43:43;24.93;;;8.80;;
8978;SDS011;4524;51.364;5.448;2023-01-31T03:46:17;27.67;;;9.67;;
8978;SDS011;4524;51.364;5.448;2023-01-31T03:48:50;20.80;;;9.27;;
8978;SDS011;4524;51.364;5.448;2023-01-31T03:51:23;23.47;;;8.80;;
8978;SDS011;4524;51.364;5.448;2023-01-31T03:53:59;28.60;;;9.03;;
8978;SDS011;4524;51.364;5.448;2023-01-31T03:56:31;23.20;;;8.80;;
8978;SDS011;4524;51.364;5.448;2023-01-31T03:59:06;22.27;;;8.83;;
8978;SDS011;4524;51.364;5.448;2023-01-31T04:01:39;24.20;;;9.50;;
8978;SDS011;4524;51.364;5.448;2023-01-31T04:04:13;24.43;;;9.13;;
8978;SDS011;4524;51.364;5.448;2023-01-31T04:06:45;25.73;;;9.80;;
8978;SDS011;4524;51.364;5.448;2023-01-31T04:09:15;26.40;;;9.77;;
8978;SDS011;4524;51.364;5.448;2023-01-31T04:11:45;22.80;;;9.30;;
8978;SDS011;4524;51.364;5.448;2023-01-31T04:14:15;23.07;;;9.73;;
8978;SDS011;4524;51.364;5.448;2023-01-31T04:16:44;24.07;;;9.73;;
8978;SDS011;4524;51.364;5.448;2023-01-31T04:19:12;26.23;;;9.57;;
8978;SDS011;4524;51.364;5.448;2023-01-31T04:21:40;21.67;;;9.00;;
8978;SDS011;4524;51.364;5.448;2023-01-31T04:24:08;25.60;;;9.30;;
8978;SDS011;4524;51.364;5.448;2023-01-31T04:26:38;22.13;;;9.73;;
8978;SDS011;4524;51.364;5.448;2023-01-31T04:29:06;28.13;;;9.37;;
8978;SDS011;4524;51.364;5.448;2023-01-31T04:31:34;21.43;;;9.53;;
8978;SDS011;4524;51.364;5.448;2023-01-31T04:34:02;24.83;;;9.57;;
8978;SDS011;4524;51.364;5.448;2023-01-31T04:36:30;24.77;;;9.70;;
8978;SDS011;4524;51.364;5.448;2023-01-31T04:38:58;28.77;;;10.20;;
8978;SDS011;4524;51.364;5.448;2023-01-31T04:41:27;27.87;;;10.13;;
8978;SDS011;4524;51.364;5.448;2023-01-31T04:43:56;30.77;;;11.40;;
8978;SDS011;4524;51.364;5.448;2023-01-31T04:46:24;24.40;;;9.93;;
8978;SDS011;4524;51.364;5.448;2023-01-31T04:48:52;25.63;;;10.13;;
8978;SDS011;4524;51.364;5.448;2023-01-31T04:51:20;26.27;;;11.07;;
8978;SDS011;4524;51.364;5.448;2023-01-31T04:53:48;23.17;;;10.07;;
8978;SDS011;4524;51.364;5.448;2023-01-31T04:56:16;22.33;;;10.63;;
8978;SDS011;4524;51.364;5.448;2023-01-31T04:58:44;27.90;;;11.10;;
8978;SDS011;4524;51.364;5.448;2023-01-31T05:01:14;25.93;;;10.63;;
8978;SDS011;4524;51.364;5.448;2023-01-31T05:03:43;25.53;;;10.43;;
8978;SDS011;4524;51.364;5.448;2023-01-31T05:06:11;27.97;;;10.80;;
8978;SDS011;4524;51.364;5.448;2023-01-31T05:08:39;23.47;;;10.30;;
8978;SDS011;4524;51.364;5.448;2023-01-31T05:11:07;27.13;;;11.37;;
8978;SDS011;4524;51.364;5.448;2023-01-31T05:13:36;28.53;;;10.07;;
8978;SDS011;4524;51.364;5.448;2023-01-31T05:16:05;24.80;;;9.67;;
8978;SDS011;4524;51.364;5.448;2023-01-31T05:18:35;25.83;;;9.87;;
8978;SDS011;4524;51.364;5.448;2023-01-31T05:21:04;24.67;;;9.60;;
8978;SDS011;4524;51.364;5.448;2023-01-31T05:23:34;22.90;;;9.80;;
8978;SDS011;4524;51.364;5.448;2023-01-31T05:26:02;23.47;;;8.70;;
8978;SDS011;4524;51.364;5.448;2023-01-31T05:28:31;25.10;;;9.57;;
8978;SDS011;4524;51.364;5.448;2023-01-31T05:31:02;25.97;;;9.63;;
8978;SDS011;4524;51.364;5.448;2023-01-31T05:33:32;18.90;;;8.23;;
8978;SDS011;4524;51.364;5.448;2023-01-31T05:36:02;27.50;;;10.00;;
8978;SDS011;4524;51.364;5.448;2023-01-31T05:38:31;26.00;;;9.70;;
8978;SDS011;4524;51.364;5.448;2023-01-31T05:40:59;21.63;;;8.97;;
8978;SDS011;4524;51.364;5.448;2023-01-31T05:43:27;16.50;;;8.33;;
8978;SDS011;4524;51.364;5.448;2023-01-31T05:45:55;24.63;;;9.73;;
8978;SDS011;4524;51.364;5.448;2023-01-31T05:48:23;17.17;;;8.07;;
8978;SDS011;4524;51.364;5.448;2023-01-31T05:50:51;26.10;;;9.57;;
8978;SDS011;4524;51.364;5.448;2023-01-31T05:53:20;27.73;;;9.37;;
8978;SDS011;4524;51.364;5.448;2023-01-31T05:55:48;21.80;;;8.67;;
8978;SDS011;4524;51.364;5.448;2023-01-31T05:58:16;24.70;;;8.53;;
8978;SDS011;4524;51.364;5.448;2023-01-31T06:00:44;29.20;;;9.40;;
8978;SDS011;4524;51.364;5.448;2023-01-31T06:03:12;29.90;;;9.10;;
8978;SDS011;4524;51.364;5.448;2023-01-31T06:05:40;19.07;;;8.87;;
8978;SDS011;4524;51.364;5.448;2023-01-31T06:08:08;24.13;;;9.37;;
8978;SDS011;4524;51.364;5.448;2023-01-31T06:10:39;21.37;;;9.03;;
8978;SDS011;4524;51.364;5.448;2023-01-31T06:13:07;15.47;;;7.83;;
8978;SDS011;4524;51.364;5.448;2023-01-31T06:15:35;19.57;;;8.43;;
8978;SDS011;4524;51.364;5.448;2023-01-31T06:18:03;21.97;;;8.37;;
8978;SDS011;4524;51.364;5.448;2023-01-31T06:20:32;17.83;;;8.23;;
8978;SDS011;4524;51.364;5.448;2023-01-31T06:23:00;18.13;;;8.23;;
8978;SDS011;4524;51.364;5.448;2023-01-31T06:25:28;23.57;;;9.27;;
8978;SDS011;4524;51.364;5.448;2023-01-31T06:27:57;22.50;;;8.53;;
8978;SDS011;4524;51.364;5.448;2023-01-31T06:30:25;17.03;;;8.50;;
8978;SDS011;4524;51.364;5.448;2023-01-31T06:32:53;21.53;;;7.90;;
8978;SDS011;4524;51.364;5.448;2023-01-31T06:35:21;21.23;;;8.50;;
8978;SDS011;4524;51.364;5.448;2023-01-31T06:37:49;20.87;;;8.60;;
8978;SDS011;4524;51.364;5.448;2023-01-31T06:40:18;15.83;;;8.37;;
8978;SDS011;4524;51.364;5.448;2023-01-31T06:42:46;20.67;;;8.60;;
8978;SDS011;4524;51.364;5.448;2023-01-31T06:45:15;23.63;;;8.33;;
8978;SDS011;4524;51.364;5.448;2023-01-31T06:47:44;17.33;;;8.60;;
8978;SDS011;4524;51.364;5.448;2023-01-31T06:50:12;19.03;;;8.80;;
8978;SDS011;4524;51.364;5.448;2023-01-31T06:52:41;21.13;;;8.20;;
8978;SDS011;4524;51.364;5.448;2023-01-31T06:55:09;19.37;;;8.10;;
8978;SDS011;4524;51.364;5.448;2023-01-31T06:57:44;22.53;;;8.00;;
8978;SDS011;4524;51.364;5.448;2023-01-31T07:00:13;18.90;;;7.57;;
8978;SDS011;4524;51.364;5.448;2023-01-31T07:02:45;20.37;;;7.97;;
8978;SDS011;4524;51.364;5.448;2023-01-31T07:05:13;17.83;;;8.80;;
8978;SDS011;4524;51.364;5.448;2023-01-31T07:07:42;17.73;;;7.77;;
8978;SDS011;4524;51.364;5.448;2023-01-31T07:10:10;21.10;;;8.40;;
8978;SDS011;4524;51.364;5.448;2023-01-31T07:12:39;20.27;;;8.87;;
8978;SDS011;4524;51.364;5.448;2023-01-31T07:15:07;22.00;;;8.47;;
8978;SDS011;4524;51.364;5.448;2023-01-31T07:17:36;15.97;;;7.00;;
8978;SDS011;4524;51.364;5.448;2023-01-31T07:20:07;21.50;;;7.77;;
8978;SDS011;4524;51.364;5.448;2023-01-31T07:22:36;17.57;;;7.50;;
8978;SDS011;4524;51.364;5.448;2023-01-31T07:25:04;18.47;;;7.40;;
8978;SDS011;4524;51.364;5.448;2023-01-31T07:27:32;19.63;;;7.40;;
8978;SDS011;4524;51.364;5.448;2023-01-31T07:30:00;20.53;;;7.53;;
8978;SDS011;4524;51.364;5.448;2023-01-31T07:32:28;16.43;;;7.50;;
8978;SDS011;4524;51.364;5.448;2023-01-31T07:34:57;18.37;;;7.53;;
8978;SDS011;4524;51.364;5.448;2023-01-31T07:37:27;18.10;;;7.07;;
8978;SDS011;4524;51.364;5.448;2023-01-31T07:39:55;18.90;;;7.20;;
8978;SDS011;4524;51.364;5.448;2023-01-31T07:42:23;18.23;;;6.33;;
8978;SDS011;4524;51.364;5.448;2023-01-31T07:44:51;18.50;;;6.60;;
8978;SDS011;4524;51.364;5.448;2023-01-31T07:47:20;18.33;;;6.77;;
8978;SDS011;4524;51.364;5.448;2023-01-31T07:49:48;11.97;;;6.30;;
8978;SDS011;4524;51.364;5.448;2023-01-31T07:52:16;16.23;;;6.17;;
8978;SDS011;4524;51.364;5.448;2023-01-31T07:54:45;21.27;;;6.43;;
8978;SDS011;4524;51.364;5.448;2023-01-31T07:57:13;14.87;;;5.63;;
8978;SDS011;4524;51.364;5.448;2023-01-31T07:59:42;12.93;;;6.03;;
8978;SDS011;4524;51.364;5.448;2023-01-31T08:02:11;16.57;;;6.60;;
8978;SDS011;4524;51.364;5.448;2023-01-31T08:04:58;12.03;;;5.53;;
8978;SDS011;4524;51.364;5.448;2023-01-31T08:07:26;23.97;;;5.70;;
8978;SDS011;4524;51.364;5.448;2023-01-31T08:09:57;15.97;;;5.80;;
8978;SDS011;4524;51.364;5.448;2023-01-31T08:12:25;17.57;;;5.53;;
8978;SDS011;4524;51.364;5.448;2023-01-31T08:14:53;16.27;;;5.57;;
8978;SDS011;4524;51.364;5.448;2023-01-31T08:17:21;15.93;;;5.37;;
8978;SDS011;4524;51.364;5.448;2023-01-31T08:19:49;12.97;;;5.37;;
8978;SDS011;4524;51.364;5.448;2023-01-31T08:22:17;15.13;;;5.17;;
8978;SDS011;4524;51.364;5.448;2023-01-31T08:24:45;17.50;;;5.77;;
8978;SDS011;4524;51.364;5.448;2023-01-31T08:27:14;11.47;;;5.00;;
8978;SDS011;4524;51.364;5.448;2023-01-31T08:29:43;13.50;;;5.57;;
8978;SDS011;4524;51.364;5.448;2023-01-31T08:32:11;14.90;;;5.20;;
8978;SDS011;4524;51.364;5.448;2023-01-31T08:34:39;11.80;;;5.17;;
8978;SDS011;4524;51.364;5.448;2023-01-31T08:37:08;14.43;;;5.50;;
8978;SDS011;4524;51.364;5.448;2023-01-31T08:39:37;18.83;;;5.70;;
8978;SDS011;4524;51.364;5.448;2023-01-31T08:42:05;18.77;;;5.20;;
8978;SDS011;4524;51.364;5.448;2023-01-31T08:44:34;12.93;;;4.47;;
8978;SDS011;4524;51.364;5.448;2023-01-31T08:47:03;16.10;;;5.07;;
8978;SDS011;4524;51.364;5.448;2023-01-31T08:49:31;13.53;;;4.93;;
8978;SDS011;4524;51.364;5.448;2023-01-31T08:52:02;16.30;;;5.30;;
8978;SDS011;4524;51.364;5.448;2023-01-31T08:54:30;16.17;;;4.83;;
8978;SDS011;4524;51.364;5.448;2023-01-31T08:56:58;13.10;;;4.90;;
8978;SDS011;4524;51.364;5.448;2023-01-31T08:59:26;17.47;;;4.87;;
8978;SDS011;4524;51.364;5.448;2023-01-31T09:01:56;16.80;;;5.03;;
8978;SDS011;4524;51.364;5.448;2023-01-31T09:04:24;13.87;;;5.60;;
8978;SDS011;4524;51.364;5.448;2023-01-31T09:06:52;11.93;;;4.60;;
8978;SDS011;4524;51.364;5.448;2023-01-31T09:09:20;13.00;;;4.87;;
8978;SDS011;4524;51.364;5.448;2023-01-31T09:11:51;16.07;;;4.70;;
8978;SDS011;4524;51.364;5.448;2023-01-31T09:14:19;13.53;;;4.97;;
8978;SDS011;4524;51.364;5.448;2023-01-31T09:18:21;13.10;;;5.17;;
8978;SDS011;4524;51.364;5.448;2023-01-31T09:20:49;15.60;;;4.53;;
8978;SDS011;4524;51.364;5.448;2023-01-31T09:23:17;10.73;;;4.43;;
8978;SDS011;4524;51.364;5.448;2023-01-31T09:25:50;12.17;;;4.73;;
8978;SDS011;4524;51.364;5.448;2023-01-31T09:28:20;14.67;;;4.97;;
8978;SDS011;4524;51.364;5.448;2023-01-31T09:30:49;14.20;;;4.57;;
8978;SDS011;4524;51.364;5.448;2023-01-31T09:33:19;13.87;;;4.47;;
8978;SDS011;4524;51.364;5.448;2023-01-31T09:35:55;14.33;;;4.97;;
8978;SDS011;4524;51.364;5.448;2023-01-31T09:38:24;12.57;;;5.23;;
8978;SDS011;4524;51.364;5.448;2023-01-31T09:40:53;16.43;;;5.50;;
8978;SDS011;4524;51.364;5.448;2023-01-31T09:43:23;14.90;;;5.03;;
8978;SDS011;4524;51.364;5.448;2023-01-31T09:45:55;17.43;;;4.73;;
8978;SDS011;4524;51.364;5.448;2023-01-31T09:48:29;16.83;;;4.83;;
8978;SDS011;4524;51.364;5.448;2023-01-31T09:51:02;18.80;;;5.07;;
8978;SDS011;4524;51.364;5.448;2023-01-31T09:53:32;17.27;;;5.47;;
8978;SDS011;4524;51.364;5.448;2023-01-31T09:56:11;13.90;;;4.80;;
8978;SDS011;4524;51.364;5.448;2023-01-31T09:58:52;16.77;;;5.43;;
8978;SDS011;4524;51.364;5.448;2023-01-31T10:01:27;14.90;;;5.00;;
8978;SDS011;4524;51.364;5.448;2023-01-31T10:04:11;12.03;;;4.80;;
8978;SDS011;4524;51.364;5.448;2023-01-31T10:06:51;10.87;;;5.00;;
8978;SDS011;4524;51.364;5.448;2023-01-31T10:09:26;18.07;;;5.23;;
8978;SDS011;4524;51.364;5.448;2023-01-31T10:11:59;14.30;;;5.00;;
8978;SDS011;4524;51.364;5.448;2023-01-31T10:14:34;14.63;;;4.90;;
8978;SDS011;4524;51.364;5.448;2023-01-31T10:17:08;13.27;;;4.73;;
8978;SDS011;4524;51.364;5.448;2023-01-31T10:19:44;16.83;;;5.57;;
8978;SDS011;4524;51.364;5.448;2023-01-31T10:22:17;15.17;;;5.73;;
8978;SDS011;4524;51.364;5.448;2023-01-31T10:24:51;11.07;;;4.90;;
8978;SDS011;4524;51.364;5.448;2023-01-31T10:27:34;17.80;;;5.17;;
8978;SDS011;4524;51.364;5.448;2023-01-31T10:30:12;11.97;;;5.33;;
8978;SDS011;4524;51.364;5.448;2023-01-31T10:32:44;18.43;;;6.17;;
8978;SDS011;4524;51.364;5.448;2023-01-31T10:35:20;14.50;;;5.53;;
8978;SDS011;4524;51.364;5.448;2023-01-31T10:37:54;16.57;;;5.73;;
8978;SDS011;4524;51.364;5.448;2023-01-31T10:40:29;13.60;;;5.60;;
8978;SDS011;4524;51.364;5.448;2023-01-31T10:43:03;12.93;;;5.23;;
8978;SDS011;4524;51.364;5.448;2023-01-31T10:45:39;16.53;;;6.37;;
8978;SDS011;4524;51.364;5.448;2023-01-31T10:48:12;11.60;;;5.60;;
8978;SDS011;4524;51.364;5.448;2023-01-31T10:50:47;16.60;;;6.30;;
8978;SDS011;4524;51.364;5.448;2023-01-31T10:53:34;14.80;;;5.63;;
8978;SDS011;4524;51.364;5.448;2023-01-31T10:56:16;17.87;;;6.40;;
8978;SDS011;4524;51.364;5.448;2023-01-31T10:58:53;17.17;;;6.10;;
8978;SDS011;4524;51.364;5.448;2023-01-31T11:01:23;15.07;;;5.60;;
8978;SDS011;4524;51.364;5.448;2023-01-31T11:03:52;14.73;;;5.50;;
8978;SDS011;4524;51.364;5.448;2023-01-31T11:06:22;16.10;;;5.90;;
8978;SDS011;4524;51.364;5.448;2023-01-31T11:08:52;11.97;;;6.17;;
8978;SDS011;4524;51.364;5.448;2023-01-31T11:11:23;14.50;;;5.97;;
8978;SDS011;4524;51.364;5.448;2023-01-31T11:13:57;16.13;;;5.80;;
8978;SDS011;4524;51.364;5.448;2023-01-31T11:16:26;17.00;;;6.10;;
8978;SDS011;4524;51.364;5.448;2023-01-31T11:18:57;11.10;;;5.33;;
8978;SDS011;4524;51.364;5.448;2023-01-31T11:21:29;15.77;;;5.57;;
8978;SDS011;4524;51.364;5.448;2023-01-31T11:24:00;11.93;;;5.47;;
8978;SDS011;4524;51.364;5.448;2023-01-31T11:26:31;16.20;;;6.00;;
8978;SDS011;4524;51.364;5.448;2023-01-31T11:29:01;13.27;;;5.73;;
8978;SDS011;4524;51.364;5.448;2023-01-31T11:31:37;11.37;;;5.77;;
8978;SDS011;4524;51.364;5.448;2023-01-31T11:34:17;11.80;;;6.07;;
8978;SDS011;4524;51.364;5.448;2023-01-31T11:36:47;13.77;;;6.30;;
8978;SDS011;4524;51.364;5.448;2023-01-31T11:39:23;14.03;;;6.00;;
8978;SDS011;4524;51.364;5.448;2023-01-31T11:41:53;11.50;;;6.27;;
8978;SDS011;4524;51.364;5.448;2023-01-31T11:44:22;16.17;;;6.13;;
8978;SDS011;4524;51.364;5.448;2023-01-31T11:46:51;12.10;;;6.27;;
8978;SDS011;4524;51.364;5.448;2023-01-31T11:49:25;14.40;;;6.90;;
8978;SDS011;4524;51.364;5.448;2023-01-31T11:51:58;11.83;;;6.57;;
8978;SDS011;4524;51.364;5.448;2023-01-31T11:54:29;17.23;;;6.73;;
8978;SDS011;4524;51.364;5.448;2023-01-31T11:57:00;16.57;;;6.67;;
8978;SDS011;4524;51.364;5.448;2023-01-31T11:59:29;15.13;;;6.97;;
8978;SDS011;4524;51.364;5.448;2023-01-31T12:01:58;14.23;;;6.47;;
8978;SDS011;4524;51.364;5.448;2023-01-31T12:04:31;15.43;;;6.60;;
8978;SDS011;4524;51.364;5.448;2023-01-31T12:07:03;13.53;;;6.80;;
8978;SDS011;4524;51.364;5.448;2023-01-31T12:09:39;13.97;;;6.63;;
8978;SDS011;4524;51.364;5.448;2023-01-31T12:12:23;15.30;;;7.23;;
8978;SDS011;4524;51.364;5.448;2023-01-31T12:14:59;16.87;;;7.13;;
8978;SDS011;4524;51.364;5.448;2023-01-31T12:17:30;16.93;;;7.23;;
8978;SDS011;4524;51.364;5.448;2023-01-31T12:20:16;15.10;;;6.80;;
8978;SDS011;4524;51.364;5.448;2023-01-31T12:22:58;13.27;;;6.97;;
8978;SDS011;4524;51.364;5.448;2023-01-31T12:25:38;14.50;;;6.40;;
8978;SDS011;4524;51.364;5.448;2023-01-31T12:28:16;15.47;;;7.37;;
8978;SDS011;4524;51.364;5.448;2023-01-31T12:31:04;19.67;;;7.77;;
8978;SDS011;4524;51.364;5.448;2023-01-31T12:33:44;14.93;;;7.07;;
8978;SDS011;4524;51.364;5.448;2023-01-31T12:36:27;16.93;;;7.40;;
8978;SDS011;4524;51.364;5.448;2023-01-31T12:39:13;16.53;;;7.03;;
8978;SDS011;4524;51.364;5.448;2023-01-31T12:41:53;15.63;;;7.47;;
8978;SDS011;4524;51.364;5.448;2023-01-31T12:44:40;15.47;;;7.23;;
8978;SDS011;4524;51.364;5.448;2023-01-31T12:47:15;15.70;;;7.43;;
8978;SDS011;4524;51.364;5.448;2023-01-31T12:50:11;15.57;;;7.73;;
8978;SDS011;4524;51.364;5.448;2023-01-31T12:52:53;18.17;;;8.00;;
8978;SDS011;4524;51.364;5.448;2023-01-31T12:55:46;17.57;;;7.47;;
8978;SDS011;4524;51.364;5.448;2023-01-31T12:58:33;15.73;;;7.43;;
8978;SDS011;4524;51.364;5.448;2023-01-31T13:01:09;15.27;;;7.57;;
8978;SDS011;4524;51.364;5.448;2023-01-31T13:03:54;17.17;;;8.33;;
8978;SDS011;4524;51.364;5.448;2023-01-31T13:06:33;19.60;;;7.33;;
8978;SDS011;4524;51.364;5.448;2023-01-31T13:09:05;16.17;;;7.83;;
8978;SDS011;4524;51.364;5.448;2023-01-31T13:11:40;14.00;;;6.97;;
8978;SDS011;4524;51.364;5.448;2023-01-31T13:14:14;13.50;;;7.53;;
8978;SDS011;4524;51.364;5.448;2023-01-31T13:16:47;15.10;;;7.70;;
8978;SDS011;4524;51.364;5.448;2023-01-31T13:19:21;16.80;;;7.70;;
8978;SDS011;4524;51.364;5.448;2023-01-31T13:21:56;15.27;;;7.50;;
8978;SDS011;4524;51.364;5.448;2023-01-31T13:24:27;21.37;;;8.30;;
8978;SDS011;4524;51.364;5.448;2023-01-31T13:27:01;16.17;;;7.63;;
8978;SDS011;4524;51.364;5.448;2023-01-31T13:29:37;12.87;;;6.97;;
8978;SDS011;4524;51.364;5.448;2023-01-31T13:32:09;13.90;;;7.57;;
8978;SDS011;4524;51.364;5.448;2023-01-31T13:34:42;17.73;;;8.07;;
8978;SDS011;4524;51.364;5.448;2023-01-31T13:37:17;13.37;;;8.03;;
8978;SDS011;4524;51.364;5.448;2023-01-31T13:39:47;14.30;;;7.73;;
8978;SDS011;4524;51.364;5.448;2023-01-31T13:42:18;14.77;;;8.03;;
8978;SDS011;4524;51.364;5.448;2023-01-31T13:44:46;16.83;;;8.00;;
8978;SDS011;4524;51.364;5.448;2023-01-31T13:47:15;15.03;;;7.77;;
8978;SDS011;4524;51.364;5.448;2023-01-31T13:49:48;15.90;;;7.50;;
8978;SDS011;4524;51.364;5.448;2023-01-31T13:52:21;15.47;;;8.07;;
8978;SDS011;4524;51.364;5.448;2023-01-31T13:54:54;11.90;;;7.40;;
8978;SDS011;4524;51.364;5.448;2023-01-31T13:57:27;15.13;;;8.27;;
8978;SDS011;4524;51.364;5.448;2023-01-31T14:00:03;15.60;;;8.47;;
8978;SDS011;4524;51.364;5.448;2023-01-31T14:02:34;14.13;;;8.63;;
8978;SDS011;4524;51.364;5.448;2023-01-31T14:05:04;11.60;;;7.83;;
8978;SDS011;4524;51.364;5.448;2023-01-31T14:10:53;11.67;;;7.57;;
8978;SDS011;4524;51.364;5.448;2023-01-31T14:13:25;12.33;;;7.90;;
8978;SDS011;4524;51.364;5.448;2023-01-31T14:19:02;12.73;;;8.93;;
8978;SDS011;4524;51.364;5.448;2023-01-31T14:27:35;15.47;;;9.33;;
8978;SDS011;4524;51.364;5.448;2023-01-31T14:33:18;13.53;;;9.40;;
8978;SDS011;4524;51.364;5.448;2023-01-31T14:35:54;16.63;;;11.47;;
8978;SDS011;4524;51.364;5.448;2023-01-31T14:38:49;11.47;;;9.93;;
8978;SDS011;4524;51.364;5.448;2023-01-31T14:41:39;14.87;;;10.43;;
8978;SDS011;4524;51.364;5.448;2023-01-31T14:44:25;13.67;;;10.53;;
8978;SDS011;4524;51.364;5.448;2023-01-31T14:47:07;21.90;;;11.73;;
8978;SDS011;4524;51.364;5.448;2023-01-31T14:52:48;16.80;;;12.00;;
8978;SDS011;4524;51.364;5.448;2023-01-31T14:55:31;14.77;;;10.70;;
8978;SDS011;4524;51.364;5.448;2023-01-31T14:58:17;18.97;;;11.77;;
8978;SDS011;4524;51.364;5.448;2023-01-31T15:00:48;14.83;;;12.03;;
8978;SDS011;4524;51.364;5.448;2023-01-31T15:03:19;16.70;;;12.50;;
8978;SDS011;4524;51.364;5.448;2023-01-31T15:05:52;21.03;;;11.83;;
8978;SDS011;4524;51.364;5.448;2023-01-31T15:08:30;17.50;;;11.87;;
8978;SDS011;4524;51.364;5.448;2023-01-31T15:17:11;18.00;;;12.33;;
8978;SDS011;4524;51.364;5.448;2023-01-31T15:20:02;19.87;;;11.73;;
8978;SDS011;4524;51.364;5.448;2023-01-31T15:22:41;16.53;;;13.07;;
8978;SDS011;4524;51.364;5.448;2023-01-31T15:25:17;17.27;;;11.37;;
8978;SDS011;4524;51.364;5.448;2023-01-31T15:27:49;17.83;;;12.03;;
8978;SDS011;4524;51.364;5.448;2023-01-31T15:30:19;17.40;;;12.23;;
8978;SDS011;4524;51.364;5.448;2023-01-31T15:32:50;18.00;;;11.80;;
8978;SDS011;4524;51.364;5.448;2023-01-31T15:35:24;21.80;;;11.33;;
8978;SDS011;4524;51.364;5.448;2023-01-31T15:38:00;18.13;;;11.10;;
8978;SDS011;4524;51.364;5.448;2023-01-31T15:40:31;17.47;;;10.37;;
8978;SDS011;4524;51.364;5.448;2023-01-31T15:43:15;20.83;;;11.57;;
8978;SDS011;4524;51.364;5.448;2023-01-31T15:45:45;15.90;;;10.47;;
8978;SDS011;4524;51.364;5.448;2023-01-31T15:48:17;17.23;;;10.87;;
8978;SDS011;4524;51.364;5.448;2023-01-31T15:50:47;15.70;;;10.77;;
8978;SDS011;4524;51.364;5.448;2023-01-31T15:53:18;16.93;;;10.10;;
8978;SDS011;4524;51.364;5.448;2023-01-31T15:55:49;19.37;;;10.10;;
8978;SDS011;4524;51.364;5.448;2023-01-31T15:58:21;19.50;;;9.63;;
8978;SDS011;4524;51.364;5.448;2023-01-31T16:00:51;16.40;;;9.23;;
8978;SDS011;4524;51.364;5.448;2023-01-31T16:03:22;16.53;;;9.30;;
8978;SDS011;4524;51.364;5.448;2023-01-31T16:05:52;13.30;;;9.23;;
8978;SDS011;4524;51.364;5.448;2023-01-31T16:08:26;17.87;;;9.23;;